createdAt,value
2017-09-06T00:02:00.814Z,5.67
2017-09-06T00:04:28.268Z,6.03
2017-09-06T00:07:01.192Z,5.67
2017-09-06T00:09:28.651Z,5.07
2017-09-06T00:11:56.107Z,5.60
2017-09-06T00:14:23.579Z,6.60
2017-09-06T00:16:51.035Z,5.67
2017-09-06T00:19:18.502Z,6.20
2017-09-06T00:21:45.971Z,5.30
2017-09-06T00:24:13.439Z,4.90
2017-09-06T00:26:40.903Z,4.90
2017-09-06T00:29:08.374Z,4.80
2017-09-06T00:31:35.835Z,5.63
2017-09-06T00:34:03.306Z,5.60
2017-09-06T00:36:30.803Z,5.67
2017-09-06T00:38:58.230Z,5.70
2017-09-06T00:41:25.695Z,5.53
2017-09-06T00:43:53.171Z,5.27
2017-09-06T00:46:20.627Z,7.03
2017-09-06T00:48:48.094Z,6.17
2017-09-06T00:51:15.550Z,6.30
2017-09-06T00:53:43.020Z,6.00
2017-09-06T00:56:10.488Z,5.87
2017-09-06T00:58:37.958Z,5.33
2017-09-06T01:01:05.419Z,6.30
2017-09-06T01:03:32.874Z,5.83
2017-09-06T01:06:00.339Z,5.97
2017-09-06T01:08:27.805Z,5.07
2017-09-06T01:10:55.276Z,5.90
2017-09-06T01:13:22.730Z,4.77
2017-09-06T01:15:50.200Z,5.90
2017-09-06T01:18:17.669Z,4.50
2017-09-06T01:20:45.139Z,5.50
2017-09-06T01:23:12.608Z,5.27
2017-09-06T01:25:40.075Z,5.10
2017-09-06T01:28:07.537Z,5.53
2017-09-06T01:30:35.008Z,4.67
2017-09-06T01:33:02.462Z,4.70
2017-09-06T01:35:29.928Z,5.20
2017-09-06T01:37:57.388Z,5.53
2017-09-06T01:40:24.851Z,6.27
2017-09-06T01:42:52.307Z,5.83
2017-09-06T01:45:19.763Z,5.33
2017-09-06T01:47:47.235Z,5.70
2017-09-06T01:50:14.709Z,7.00
2017-09-06T01:52:42.170Z,6.70
2017-09-06T01:55:09.638Z,7.03
2017-09-06T01:57:37.115Z,5.90
2017-09-06T02:00:04.571Z,6.17
2017-09-06T02:02:32.039Z,5.80
2017-09-06T02:04:59.500Z,5.27
2017-09-06T02:07:26.973Z,6.30
2017-09-06T02:09:54.716Z,6.00
2017-09-06T02:12:22.171Z,6.13
2017-09-06T02:14:49.623Z,6.67
2017-09-06T02:17:17.091Z,6.17
2017-09-06T02:19:44.551Z,6.33
2017-09-06T02:22:12.788Z,6.80
2017-09-06T02:24:40.252Z,6.60
2017-09-06T02:27:07.730Z,7.20
2017-09-06T02:29:35.184Z,8.20
2017-09-06T02:32:02.665Z,7.93
2017-09-06T02:34:30.125Z,8.97
2017-09-06T02:36:57.603Z,7.70
2017-09-06T02:39:25.062Z,9.53
2017-09-06T02:41:52.521Z,7.20
2017-09-06T02:44:19.987Z,8.47
2017-09-06T02:46:47.436Z,8.40
2017-09-06T02:49:14.929Z,7.83
2017-09-06T02:51:42.391Z,8.67
2017-09-06T02:54:09.868Z,9.40
2017-09-06T02:56:37.337Z,8.47
2017-09-06T02:59:04.802Z,6.93
2017-09-06T03:01:32.267Z,7.43
2017-09-06T03:03:59.739Z,7.40
2017-09-06T03:06:27.195Z,8.50
2017-09-06T03:08:54.667Z,7.23
2017-09-06T03:11:22.128Z,7.43
2017-09-06T03:13:49.596Z,6.97
2017-09-06T03:16:17.095Z,6.77
2017-09-06T03:18:44.571Z,6.07
2017-09-06T03:21:12.027Z,6.87
2017-09-06T03:23:39.488Z,5.80
2017-09-06T03:26:06.951Z,6.40
2017-09-06T03:28:34.416Z,6.20
2017-09-06T03:31:01.885Z,6.37
2017-09-06T03:33:29.362Z,6.83
2017-09-06T03:35:56.826Z,6.93
2017-09-06T03:38:24.280Z,6.80
2017-09-06T03:40:51.756Z,6.60
2017-09-06T03:43:19.211Z,6.50
2017-09-06T03:45:46.688Z,7.97
2017-09-06T03:48:14.152Z,6.47
2017-09-06T03:50:41.612Z,5.90
2017-09-06T03:53:09.067Z,6.07
2017-09-06T03:55:36.541Z,5.87
2017-09-06T03:58:03.991Z,6.60
2017-09-06T04:00:31.461Z,6.43
2017-09-06T04:02:58.915Z,6.53
2017-09-06T04:05:26.394Z,6.87
2017-09-06T04:07:53.855Z,7.17
2017-09-06T04:10:21.318Z,8.30
2017-09-06T04:12:48.788Z,12.23
2017-09-06T04:15:16.258Z,11.30
2017-09-06T04:17:43.723Z,10.77
2017-09-06T04:20:11.186Z,11.97
2017-09-06T04:22:38.672Z,12.67
2017-09-06T04:25:06.136Z,11.00
2017-09-06T04:27:39.904Z,10.43
2017-09-06T04:30:07.369Z,9.43
2017-09-06T04:32:35.039Z,8.60
2017-09-06T04:35:02.495Z,8.17
2017-09-06T04:37:29.963Z,7.17
2017-09-06T04:39:57.431Z,6.23
2017-09-06T04:42:24.908Z,8.00
2017-09-06T04:44:52.354Z,7.50
2017-09-06T04:47:19.838Z,8.17
2017-09-06T04:49:47.290Z,7.40
2017-09-06T04:52:14.773Z,7.87
2017-09-06T04:54:42.234Z,7.10
2017-09-06T04:57:09.719Z,6.60
2017-09-06T04:59:37.183Z,5.57
2017-09-06T05:02:04.648Z,7.03
2017-09-06T05:04:32.115Z,6.47
2017-09-06T05:06:59.588Z,6.53
2017-09-06T05:09:27.043Z,6.30
2017-09-06T05:11:54.524Z,5.00
2017-09-06T05:14:21.983Z,6.00
2017-09-06T05:16:49.456Z,5.50
2017-09-06T05:19:16.909Z,5.97
2017-09-06T05:21:45.257Z,7.60
2017-09-06T05:24:12.724Z,7.37
2017-09-06T05:26:40.200Z,8.70
2017-09-06T05:29:07.654Z,8.40
2017-09-06T05:31:35.129Z,9.87
2017-09-06T05:34:02.606Z,10.17
2017-09-06T05:36:30.073Z,11.20
2017-09-06T05:38:57.548Z,10.90
2017-09-06T05:41:25.009Z,11.80
2017-09-06T05:43:52.482Z,11.87
2017-09-06T05:46:19.955Z,11.23
2017-09-06T05:48:47.423Z,11.70
2017-09-06T05:51:14.882Z,10.83
2017-09-06T05:53:42.366Z,11.60
2017-09-06T05:56:09.835Z,12.13
2017-09-06T05:58:37.311Z,12.10
2017-09-06T06:01:05.287Z,12.00
2017-09-06T06:03:32.754Z,12.80
2017-09-06T06:06:00.222Z,11.70
2017-09-06T06:08:41.941Z,12.13
2017-09-06T06:11:09.402Z,12.17
2017-09-06T06:13:36.886Z,11.93
2017-09-06T06:16:04.375Z,10.43
2017-09-06T06:18:31.843Z,10.17
2017-09-06T06:20:59.349Z,10.33
2017-09-06T06:23:26.816Z,11.47
2017-09-06T06:25:54.283Z,10.90
2017-09-06T06:28:21.755Z,10.37
2017-09-06T06:30:49.231Z,9.03
2017-09-06T06:33:16.702Z,9.30
2017-09-06T06:35:44.165Z,8.73
2017-09-06T06:38:11.762Z,9.20
2017-09-06T06:40:39.249Z,8.93
2017-09-06T06:43:06.703Z,8.37
2017-09-06T06:45:34.174Z,9.20
2017-09-06T06:48:01.626Z,8.17
2017-09-06T06:50:29.090Z,8.30
2017-09-06T06:52:56.557Z,8.23
2017-09-06T06:55:24.033Z,7.90
2017-09-06T06:57:51.496Z,7.97
2017-09-06T07:00:18.964Z,8.50
2017-09-06T07:02:46.424Z,9.07
2017-09-06T07:05:13.892Z,7.20
2017-09-06T07:07:41.351Z,8.20
2017-09-06T07:10:08.814Z,6.50
2017-09-06T07:12:36.279Z,5.93
2017-09-06T07:15:03.760Z,5.43
2017-09-06T07:17:31.214Z,4.90
2017-09-06T07:19:58.680Z,6.40
2017-09-06T07:22:26.142Z,7.53
2017-09-06T07:24:53.606Z,4.60
2017-09-06T07:27:21.074Z,4.60
2017-09-06T07:29:48.537Z,5.37
2017-09-06T07:32:16.011Z,4.83
2017-09-06T07:34:43.468Z,4.40
2017-09-06T07:37:10.946Z,4.10
2017-09-06T07:39:38.409Z,3.83
2017-09-06T07:42:05.895Z,4.20
2017-09-06T07:44:34.113Z,3.60
2017-09-06T07:47:01.596Z,3.80
2017-09-06T07:49:29.058Z,3.70
2017-09-06T07:51:56.527Z,4.13
2017-09-06T07:54:23.994Z,4.20
2017-09-06T07:56:51.455Z,4.40
2017-09-06T07:59:18.915Z,4.50
2017-09-06T08:01:46.772Z,4.50
2017-09-06T08:04:14.231Z,4.67
2017-09-06T08:06:41.691Z,4.93
2017-09-06T08:09:09.157Z,4.67
2017-09-06T08:11:36.628Z,5.33
2017-09-06T08:14:04.082Z,4.97
2017-09-06T08:16:31.544Z,5.00
2017-09-06T08:18:59.030Z,5.33
2017-09-06T08:21:26.497Z,5.87
2017-09-06T08:23:55.170Z,6.33
2017-09-06T08:26:22.628Z,6.83
2017-09-06T08:28:50.103Z,6.67
2017-09-06T08:31:17.565Z,5.60
2017-09-06T08:33:45.031Z,5.23
2017-09-06T08:36:12.491Z,5.93
2017-09-06T08:38:39.957Z,5.30
2017-09-06T08:41:07.410Z,5.97
2017-09-06T08:43:34.892Z,4.80
2017-09-06T08:46:02.358Z,4.60
2017-09-06T08:48:29.827Z,4.00
2017-09-06T08:50:57.289Z,4.33
2017-09-06T08:53:24.742Z,3.60
2017-09-06T08:55:52.216Z,3.13
2017-09-06T08:58:19.678Z,2.73
2017-09-06T09:00:47.152Z,3.43
2017-09-06T09:03:14.648Z,3.17
2017-09-06T09:05:42.074Z,2.67
2017-09-06T09:08:09.539Z,2.73
2017-09-06T09:10:37.012Z,3.20
2017-09-06T09:13:04.471Z,2.90
2017-09-06T09:15:31.934Z,2.57
2017-09-06T09:17:59.387Z,2.73
2017-09-06T09:20:26.851Z,3.10
2017-09-06T09:22:54.314Z,2.80
2017-09-06T09:25:21.779Z,2.97
2017-09-06T09:27:49.255Z,2.67
2017-09-06T09:30:16.726Z,2.97
2017-09-06T09:32:46.962Z,2.30
2017-09-06T09:35:14.420Z,2.40
2017-09-06T09:37:41.905Z,2.97
2017-09-06T09:40:09.357Z,2.03
2017-09-06T09:42:36.831Z,2.50
2017-09-06T09:45:04.294Z,2.30
2017-09-06T09:47:31.753Z,2.40
2017-09-06T09:49:59.217Z,1.93
2017-09-06T09:52:26.978Z,1.93
2017-09-06T09:54:54.453Z,1.80
2017-09-06T09:57:21.992Z,1.60
2017-09-06T09:59:49.456Z,1.50
2017-09-06T10:02:16.927Z,1.50
2017-09-06T10:04:44.382Z,2.00
2017-09-06T10:07:11.850Z,1.43
2017-09-06T10:09:39.316Z,1.70
2017-09-06T10:12:06.782Z,1.80
2017-09-06T10:14:34.248Z,1.73
2017-09-06T10:17:01.727Z,2.00
2017-09-06T10:19:29.199Z,2.47
2017-09-06T10:21:56.667Z,2.10
2017-09-06T10:24:24.140Z,1.90
2017-09-06T10:26:52.469Z,2.00
2017-09-06T10:29:19.931Z,2.50
2017-09-06T10:31:47.821Z,2.20
2017-09-06T10:34:15.275Z,2.10
2017-09-06T10:36:42.748Z,2.67
2017-09-06T10:39:10.217Z,2.37
2017-09-06T10:41:37.675Z,2.40
2017-09-06T10:44:05.139Z,2.13
2017-09-06T10:46:32.604Z,1.93
2017-09-06T10:49:00.070Z,1.97
2017-09-06T10:51:27.531Z,2.03
2017-09-06T10:53:55.003Z,2.10
2017-09-06T10:56:22.473Z,2.60
2017-09-06T10:58:49.940Z,2.80
2017-09-06T11:01:17.401Z,2.90
2017-09-06T11:03:44.877Z,3.37
2017-09-06T11:06:12.336Z,3.90
2017-09-06T11:08:39.803Z,4.97
2017-09-06T11:11:07.262Z,4.80
2017-09-06T11:13:34.756Z,4.83
2017-09-06T11:16:02.208Z,5.83
2017-09-06T11:18:30.451Z,5.50
2017-09-06T11:20:57.917Z,6.37
2017-09-06T11:23:25.383Z,6.30
2017-09-06T11:25:52.834Z,5.40
2017-09-06T11:28:20.314Z,6.43
2017-09-06T11:30:47.772Z,5.23
2017-09-06T11:33:15.236Z,6.13
2017-09-06T11:35:42.712Z,5.97
2017-09-06T11:38:10.161Z,5.20
2017-09-06T11:40:37.648Z,5.10
2017-09-06T11:43:05.107Z,5.97
2017-09-06T11:45:32.574Z,4.37
2017-09-06T11:48:00.037Z,4.10
2017-09-06T11:50:27.504Z,3.60
2017-09-06T11:52:54.967Z,3.53
2017-09-06T11:55:22.426Z,3.50
2017-09-06T11:57:49.883Z,3.47
2017-09-06T12:03:10.447Z,1.90
2017-09-06T12:05:37.915Z,1.73
2017-09-06T12:08:05.376Z,1.60
2017-09-06T12:10:32.844Z,2.10
2017-09-06T12:13:00.307Z,1.63
2017-09-06T12:15:27.803Z,1.70
2017-09-06T12:17:56.247Z,1.90
2017-09-06T12:20:23.712Z,1.80
2017-09-06T12:22:51.187Z,1.50
2017-09-06T12:25:18.653Z,1.17
2017-09-06T12:27:46.132Z,1.00
2017-09-06T12:30:13.593Z,1.47
2017-09-06T12:32:41.059Z,1.10
2017-09-06T12:35:08.526Z,1.07
2017-09-06T12:37:35.984Z,1.00
2017-09-06T12:40:04.206Z,0.93
2017-09-06T12:42:31.680Z,0.70
2017-09-06T12:44:59.148Z,1.57
2017-09-06T12:47:26.615Z,0.60
2017-09-06T12:49:54.081Z,0.53
2017-09-06T12:52:22.340Z,0.47
2017-09-06T12:54:49.804Z,0.70
2017-09-06T12:57:17.271Z,0.40
2017-09-06T12:59:44.733Z,0.53
2017-09-06T13:02:12.195Z,0.60
2017-09-06T13:04:39.664Z,0.70
2017-09-06T13:07:07.127Z,0.67
2017-09-06T13:09:34.593Z,0.80
2017-09-06T13:12:02.060Z,0.63
2017-09-06T13:14:29.536Z,0.37
2017-09-06T13:16:56.989Z,0.97
2017-09-06T13:19:24.455Z,0.70
2017-09-06T13:21:51.919Z,0.50
2017-09-06T13:24:19.384Z,0.90
2017-09-06T13:26:46.845Z,0.70
2017-09-06T13:29:14.312Z,0.87
2017-09-06T13:31:41.776Z,0.73
2017-09-06T13:34:09.258Z,0.73
2017-09-06T13:36:37.485Z,0.97
2017-09-06T13:39:04.956Z,1.10
2017-09-06T13:41:32.416Z,1.10
2017-09-06T13:43:59.890Z,1.30
2017-09-06T13:46:27.351Z,1.00
2017-09-06T13:48:54.806Z,1.20
2017-09-06T13:51:22.275Z,1.73
2017-09-06T13:53:49.751Z,1.20
2017-09-06T13:56:17.215Z,1.80
2017-09-06T13:58:47.540Z,2.00
2017-09-06T14:01:15.008Z,2.07
2017-09-06T14:03:42.462Z,1.63
2017-09-06T14:06:09.932Z,2.00
2017-09-06T14:08:37.399Z,2.40
2017-09-06T14:11:04.859Z,2.30
2017-09-06T14:13:32.313Z,1.50
2017-09-06T14:15:59.800Z,1.10
2017-09-06T14:18:27.264Z,0.57
2017-09-06T14:20:54.728Z,0.77
2017-09-06T14:23:22.180Z,0.70
2017-09-06T14:25:49.652Z,0.60
2017-09-06T14:28:17.112Z,0.90
2017-09-06T14:30:44.586Z,1.50
2017-09-06T14:33:12.043Z,1.17
2017-09-06T14:35:39.515Z,1.50
2017-09-06T14:38:06.975Z,2.40
2017-09-06T14:40:34.480Z,2.03
2017-09-06T14:43:02.039Z,3.03
2017-09-06T14:45:29.603Z,2.27
2017-09-06T14:47:57.060Z,2.70
2017-09-06T14:50:24.523Z,2.07
2017-09-06T14:52:52.066Z,1.90
2017-09-06T14:55:19.530Z,2.03
2017-09-06T14:57:47.008Z,2.60
2017-09-06T15:00:14.548Z,2.27
2017-09-06T15:02:42.028Z,2.33
2017-09-06T15:05:09.571Z,2.10
2017-09-06T15:07:37.044Z,2.77
2017-09-06T15:10:04.504Z,2.30
2017-09-06T15:12:31.962Z,2.23
2017-09-06T15:14:59.428Z,2.20
2017-09-06T15:17:26.968Z,2.70
2017-09-06T15:19:54.428Z,2.60
2017-09-06T15:22:21.905Z,3.00
2017-09-06T15:24:49.360Z,2.77
2017-09-06T15:27:16.823Z,2.70
2017-09-06T15:29:44.287Z,2.87
2017-09-06T15:32:11.752Z,2.23
2017-09-06T15:34:39.215Z,3.53
2017-09-06T15:37:06.682Z,2.87
2017-09-06T15:39:34.135Z,2.97
2017-09-06T15:42:01.640Z,3.93
2017-09-06T15:44:29.208Z,2.90
2017-09-06T15:46:56.680Z,3.47
2017-09-06T15:49:24.231Z,3.60
2017-09-06T15:51:51.708Z,3.57
2017-09-06T15:54:19.339Z,3.60
2017-09-06T15:56:46.809Z,2.90
2017-09-06T15:59:14.267Z,3.43
2017-09-06T16:01:41.739Z,3.30
2017-09-06T16:04:09.205Z,3.60
2017-09-06T16:06:36.671Z,3.20
2017-09-06T16:09:04.134Z,3.03
2017-09-06T16:11:31.596Z,2.70
2017-09-06T16:13:59.076Z,2.70
2017-09-06T16:16:26.566Z,3.07
2017-09-06T16:18:54.034Z,2.63
2017-09-06T16:21:21.595Z,3.63
2017-09-06T16:23:49.152Z,2.60
2017-09-06T16:26:16.708Z,2.83
2017-09-06T16:28:44.171Z,3.50
2017-09-06T16:31:11.678Z,2.90
2017-09-06T16:33:39.173Z,2.90
2017-09-06T16:36:06.702Z,3.10
2017-09-06T16:38:34.205Z,2.30
2017-09-06T16:41:01.758Z,3.60
2017-09-06T16:43:29.328Z,3.00
2017-09-06T16:45:56.888Z,2.87
2017-09-06T16:48:24.363Z,2.90
2017-09-06T16:50:51.817Z,2.90
2017-09-06T16:53:19.290Z,1.80
2017-09-06T16:55:46.755Z,2.20
2017-09-06T16:58:14.212Z,1.70
2017-09-06T17:00:41.692Z,2.10
2017-09-06T17:03:09.148Z,2.33
2017-09-06T17:05:36.893Z,2.30
2017-09-06T17:08:05.115Z,1.73
2017-09-06T17:10:32.587Z,2.40
2017-09-06T17:13:00.138Z,2.10
2017-09-06T17:15:27.611Z,1.90
2017-09-06T17:17:55.075Z,2.17
2017-09-06T17:20:22.547Z,1.73
2017-09-06T17:22:50.000Z,2.03
2017-09-06T17:25:17.539Z,2.27
2017-09-06T17:27:44.991Z,2.00
2017-09-06T17:30:12.469Z,1.40
2017-09-06T17:32:40.353Z,2.30
2017-09-06T17:35:07.844Z,1.80
2017-09-06T17:37:35.348Z,2.10
2017-09-06T17:40:02.808Z,2.33
2017-09-06T17:42:30.268Z,2.30
2017-09-06T17:44:57.732Z,2.30
2017-09-06T17:47:25.275Z,2.27
2017-09-06T17:49:52.727Z,2.07
2017-09-06T17:52:20.200Z,2.10
2017-09-06T17:54:47.660Z,2.30
2017-09-06T17:57:15.248Z,2.10
2017-09-06T17:59:42.719Z,1.80
2017-09-06T18:02:10.196Z,2.03
2017-09-06T18:04:37.651Z,2.10
2017-09-06T18:07:05.125Z,2.67
2017-09-06T18:09:32.604Z,2.20
2017-09-06T18:12:00.079Z,1.93
2017-09-06T18:14:27.548Z,2.10
2017-09-06T18:16:55.016Z,2.33
2017-09-06T18:19:22.492Z,1.90
2017-09-06T18:21:49.949Z,1.97
2017-09-06T18:24:17.424Z,1.70
2017-09-06T18:26:45.415Z,1.80
2017-09-06T18:29:12.894Z,1.10
2017-09-06T18:31:40.353Z,2.33
2017-09-06T18:34:07.827Z,1.63
2017-09-06T18:36:35.280Z,1.97
2017-09-06T18:39:02.751Z,1.77
2017-09-06T18:41:30.216Z,2.80
2017-09-06T18:43:57.726Z,2.30
2017-09-06T18:46:25.293Z,1.87
2017-09-06T18:48:52.755Z,2.10
2017-09-06T18:51:20.212Z,2.37
2017-09-06T18:53:47.675Z,1.50
2017-09-06T18:56:15.222Z,2.07
2017-09-06T18:58:42.698Z,1.97
2017-09-06T19:01:10.164Z,2.20
2017-09-06T19:03:37.696Z,1.60
2017-09-06T19:06:05.155Z,2.30
2017-09-06T19:08:32.729Z,2.63
2017-09-06T19:11:00.192Z,1.80
2017-09-06T19:13:27.664Z,2.33
2017-09-06T19:15:55.156Z,2.47
2017-09-06T19:18:22.582Z,2.37
2017-09-06T19:20:50.034Z,2.40
2017-09-06T19:23:17.499Z,2.70
2017-09-06T19:25:44.950Z,2.50
2017-09-06T19:28:12.427Z,2.50
2017-09-06T19:30:39.939Z,2.30
2017-09-06T19:33:07.416Z,2.60
2017-09-06T19:35:34.874Z,2.50
2017-09-06T19:38:02.336Z,2.70
2017-09-06T19:40:29.808Z,2.73
2017-09-06T19:42:57.341Z,2.20
2017-09-06T19:45:24.806Z,2.10
2017-09-06T19:47:52.267Z,2.50
2017-09-06T19:50:19.815Z,3.30
2017-09-06T19:52:47.286Z,3.20
2017-09-06T19:55:14.826Z,3.57
2017-09-06T19:57:42.386Z,2.67
2017-09-06T20:00:09.951Z,2.57
2017-09-06T20:02:37.406Z,3.10
2017-09-06T20:05:04.884Z,2.57
2017-09-06T20:07:32.347Z,2.60
2017-09-06T20:09:59.888Z,2.47
2017-09-06T20:12:27.352Z,3.00
2017-09-06T20:14:54.896Z,2.83
2017-09-06T20:17:22.357Z,3.10
2017-09-06T20:19:49.828Z,2.43
2017-09-06T20:22:17.380Z,1.80
2017-09-06T20:24:44.937Z,3.20
2017-09-06T20:27:12.412Z,2.73
2017-09-06T20:29:39.946Z,2.30
2017-09-06T20:32:07.519Z,2.30
2017-09-06T20:34:34.980Z,2.17
2017-09-06T20:37:02.567Z,2.73
2017-09-06T20:39:30.873Z,2.80
2017-09-06T20:41:58.352Z,2.87
2017-09-06T20:44:25.812Z,2.00
2017-09-06T20:46:53.827Z,2.30
2017-09-06T20:49:21.368Z,2.60
2017-09-06T20:51:48.819Z,2.03
2017-09-06T20:54:16.292Z,2.57
2017-09-06T20:56:43.747Z,2.70
2017-09-06T20:59:11.222Z,2.30
2017-09-06T21:01:38.760Z,3.10
2017-09-06T21:04:06.320Z,2.70
2017-09-06T21:06:33.766Z,2.30
2017-09-06T21:09:01.343Z,3.30
2017-09-06T21:11:28.891Z,3.07
2017-09-06T21:16:49.826Z,2.60
2017-09-06T21:19:17.374Z,2.60
2017-09-06T21:21:44.846Z,2.63
2017-09-06T21:24:12.334Z,3.17
2017-09-06T21:26:39.788Z,2.50
2017-09-06T21:29:07.259Z,3.03
2017-09-06T21:31:34.777Z,2.90
2017-09-06T21:34:02.240Z,2.80
2017-09-06T21:36:29.794Z,3.10
2017-09-06T21:38:57.451Z,3.10
2017-09-06T21:41:24.897Z,3.27
2017-09-06T21:43:52.472Z,3.43
2017-09-06T21:46:19.931Z,3.90
2017-09-06T21:48:47.401Z,3.07
2017-09-06T21:51:14.942Z,3.13
2017-09-06T21:53:42.499Z,2.73
2017-09-06T21:56:09.967Z,2.70
2017-09-06T21:58:37.522Z,3.13
2017-09-06T22:01:05.000Z,4.60
2017-09-06T22:03:32.535Z,4.13
2017-09-06T22:06:00.105Z,3.67
2017-09-06T22:08:27.595Z,4.00
2017-09-06T22:10:55.064Z,3.30
2017-09-06T22:13:22.588Z,4.20
2017-09-06T22:15:50.056Z,3.20
2017-09-06T22:18:17.512Z,3.50
2017-09-06T22:20:44.988Z,5.03
2017-09-06T22:23:13.210Z,3.40
2017-09-06T22:26:17.528Z,3.37
2017-09-06T22:28:44.978Z,3.70
2017-09-06T22:31:12.451Z,3.70
2017-09-06T22:33:39.922Z,4.10
2017-09-06T22:36:07.403Z,4.10
2017-09-06T22:38:35.639Z,3.90
2017-09-06T22:41:03.221Z,4.33
2017-09-06T22:43:30.679Z,4.57
2017-09-06T22:45:58.239Z,3.43
2017-09-06T22:48:25.708Z,3.50
2017-09-06T22:50:53.166Z,4.03
2017-09-06T22:53:21.399Z,3.60
2017-09-06T22:55:48.872Z,3.80
2017-09-06T22:58:16.347Z,3.77
2017-09-06T23:00:43.807Z,3.60
2017-09-06T23:03:11.372Z,4.27
2017-09-06T23:05:38.846Z,3.37
2017-09-06T23:08:07.071Z,4.73
2017-09-06T23:10:34.555Z,4.30
2017-09-06T23:13:02.841Z,4.57
2017-09-06T23:15:30.302Z,3.67
2017-09-06T23:17:57.850Z,4.47
2017-09-06T23:20:25.316Z,4.30
2017-09-06T23:22:52.791Z,4.03
2017-09-06T23:25:21.014Z,3.97
2017-09-06T23:27:48.607Z,4.30
2017-09-06T23:30:16.168Z,5.37
2017-09-06T23:32:43.631Z,4.47
2017-09-06T23:35:11.188Z,4.50
2017-09-06T23:37:38.655Z,4.17
2017-09-06T23:40:06.203Z,4.60
2017-09-06T23:42:33.668Z,4.90
2017-09-06T23:45:01.141Z,6.23
2017-09-06T23:47:29.377Z,4.37
2017-09-06T23:49:56.842Z,5.13
2017-09-06T23:52:24.310Z,5.43
2017-09-06T23:54:51.786Z,5.23
2017-09-06T23:57:20.019Z,4.63
2017-09-06T23:59:47.491Z,5.30
